sensor_id;sensor_type;location;lat;lon;timestamp;P1;durP1;ratioP1;P2;durP2;ratioP2
12990;SDS011;6560;57.692;11.958;2023-01-15T00:02:14;11.93;;;3.73;;
12990;SDS011;6560;57.692;11.958;2023-01-15T00:04:42;10.60;;;2.97;;
12990;SDS011;6560;57.692;11.958;2023-01-15T00:07:07;20.63;;;2.70;;
12990;SDS011;6560;57.692;11.958;2023-01-15T00:09:33;14.23;;;3.00;;
12990;SDS011;6560;57.692;11.958;2023-01-15T00:11:58;12.33;;;2.90;;
12990;SDS011;6560;57.692;11.958;2023-01-15T00:14:24;16.47;;;3.50;;
12990;SDS011;6560;57.692;11.958;2023-01-15T00:16:50;16.77;;;3.50;;
12990;SDS011;6560;57.692;11.958;2023-01-15T00:19:17;14.00;;;2.90;;
12990;SDS011;6560;57.692;11.958;2023-01-15T00:21:42;14.37;;;3.30;;
12990;SDS011;6560;57.692;11.958;2023-01-15T00:24:08;17.97;;;4.07;;
12990;SDS011;6560;57.692;11.958;2023-01-15T00:26:54;17.43;;;4.03;;
12990;SDS011;6560;57.692;11.958;2023-01-15T00:29:38;16.93;;;3.00;;
12990;SDS011;6560;57.692;11.958;2023-01-15T00:32:07;8.80;;;3.10;;
12990;SDS011;6560;57.692;11.958;2023-01-15T00:34:40;11.80;;;3.30;;
12990;SDS011;6560;57.692;11.958;2023-01-15T00:37:09;22.50;;;4.40;;
12990;SDS011;6560;57.692;11.958;2023-01-15T00:39:42;15.00;;;4.03;;
12990;SDS011;6560;57.692;11.958;2023-01-15T00:42:17;18.70;;;3.87;;
12990;SDS011;6560;57.692;11.958;2023-01-15T00:44:42;23.57;;;4.17;;
12990;SDS011;6560;57.692;11.958;2023-01-15T00:47:08;17.53;;;3.70;;
12990;SDS011;6560;57.692;11.958;2023-01-15T00:49:38;16.73;;;3.20;;
12990;SDS011;6560;57.692;11.958;2023-01-15T00:52:04;13.53;;;3.33;;
12990;SDS011;6560;57.692;11.958;2023-01-15T00:54:30;18.03;;;3.53;;
12990;SDS011;6560;57.692;11.958;2023-01-15T00:56:57;14.87;;;4.33;;
12990;SDS011;6560;57.692;11.958;2023-01-15T00:59:23;17.63;;;4.73;;
12990;SDS011;6560;57.692;11.958;2023-01-15T01:01:48;13.30;;;3.20;;
12990;SDS011;6560;57.692;11.958;2023-01-15T01:04:14;13.43;;;3.37;;
12990;SDS011;6560;57.692;11.958;2023-01-15T01:06:40;22.63;;;4.27;;
12990;SDS011;6560;57.692;11.958;2023-01-15T01:09:05;17.87;;;3.97;;
12990;SDS011;6560;57.692;11.958;2023-01-15T01:11:31;17.90;;;4.47;;
12990;SDS011;6560;57.692;11.958;2023-01-15T01:13:58;20.80;;;4.40;;
12990;SDS011;6560;57.692;11.958;2023-01-15T01:16:29;18.00;;;3.40;;
12990;SDS011;6560;57.692;11.958;2023-01-15T01:19:00;19.93;;;3.40;;
12990;SDS011;6560;57.692;11.958;2023-01-15T01:21:28;22.93;;;4.63;;
12990;SDS011;6560;57.692;11.958;2023-01-15T01:23:54;21.30;;;4.47;;
12990;SDS011;6560;57.692;11.958;2023-01-15T01:26:22;27.93;;;5.33;;
12990;SDS011;6560;57.692;11.958;2023-01-15T01:28:51;20.97;;;4.00;;
12990;SDS011;6560;57.692;11.958;2023-01-15T01:31:18;23.03;;;4.77;;
12990;SDS011;6560;57.692;11.958;2023-01-15T01:33:46;22.43;;;5.50;;
12990;SDS011;6560;57.692;11.958;2023-01-15T01:36:16;31.83;;;4.23;;
12990;SDS011;6560;57.692;11.958;2023-01-15T01:38:42;21.07;;;4.57;;
12990;SDS011;6560;57.692;11.958;2023-01-15T01:41:07;23.67;;;4.63;;
12990;SDS011;6560;57.692;11.958;2023-01-15T01:46:31;17.00;;;4.20;;
12990;SDS011;6560;57.692;11.958;2023-01-15T01:49:20;21.60;;;5.17;;
12990;SDS011;6560;57.692;11.958;2023-01-15T01:51:46;17.03;;;4.10;;
12990;SDS011;6560;57.692;11.958;2023-01-15T01:54:16;11.90;;;3.50;;
12990;SDS011;6560;57.692;11.958;2023-01-15T01:56:46;16.20;;;3.23;;
12990;SDS011;6560;57.692;11.958;2023-01-15T01:59:13;22.23;;;4.67;;
12990;SDS011;6560;57.692;11.958;2023-01-15T02:01:41;24.30;;;4.90;;
12990;SDS011;6560;57.692;11.958;2023-01-15T02:04:07;22.93;;;4.53;;
12990;SDS011;6560;57.692;11.958;2023-01-15T02:06:34;22.03;;;3.70;;
12990;SDS011;6560;57.692;11.958;2023-01-15T02:09:02;23.63;;;4.37;;
12990;SDS011;6560;57.692;11.958;2023-01-15T02:11:29;18.80;;;3.70;;
12990;SDS011;6560;57.692;11.958;2023-01-15T02:19:44;18.50;;;3.57;;
12990;SDS011;6560;57.692;11.958;2023-01-15T02:27:56;24.17;;;4.63;;
12990;SDS011;6560;57.692;11.958;2023-01-15T02:30:29;30.57;;;5.30;;
12990;SDS011;6560;57.692;11.958;2023-01-15T02:32:59;25.37;;;4.47;;
12990;SDS011;6560;57.692;11.958;2023-01-15T02:35:49;27.77;;;4.20;;
12990;SDS011;6560;57.692;11.958;2023-01-15T02:38:31;17.57;;;4.53;;
12990;SDS011;6560;57.692;11.958;2023-01-15T02:41:02;20.77;;;3.40;;
12990;SDS011;6560;57.692;11.958;2023-01-15T02:43:34;15.70;;;3.63;;
12990;SDS011;6560;57.692;11.958;2023-01-15T02:46:02;15.53;;;3.67;;
12990;SDS011;6560;57.692;11.958;2023-01-15T02:48:30;20.50;;;4.80;;
12990;SDS011;6560;57.692;11.958;2023-01-15T02:51:00;16.57;;;3.20;;
12990;SDS011;6560;57.692;11.958;2023-01-15T02:53:34;25.13;;;4.80;;
12990;SDS011;6560;57.692;11.958;2023-01-15T02:56:08;21.43;;;3.40;;
12990;SDS011;6560;57.692;11.958;2023-01-15T02:58:37;20.10;;;3.77;;
12990;SDS011;6560;57.692;11.958;2023-01-15T03:01:13;18.90;;;3.70;;
12990;SDS011;6560;57.692;11.958;2023-01-15T03:06:16;19.27;;;3.00;;
12990;SDS011;6560;57.692;11.958;2023-01-15T03:08:42;21.60;;;3.27;;
12990;SDS011;6560;57.692;11.958;2023-01-15T03:11:12;16.07;;;3.33;;
12990;SDS011;6560;57.692;11.958;2023-01-15T03:16:42;14.07;;;3.00;;
12990;SDS011;6560;57.692;11.958;2023-01-15T03:19:31;18.10;;;3.10;;
12990;SDS011;6560;57.692;11.958;2023-01-15T03:22:20;21.17;;;2.67;;
12990;SDS011;6560;57.692;11.958;2023-01-15T03:27:30;27.93;;;3.73;;
12990;SDS011;6560;57.692;11.958;2023-01-15T03:30:16;12.60;;;2.30;;
12990;SDS011;6560;57.692;11.958;2023-01-15T03:32:45;20.80;;;3.70;;
12990;SDS011;6560;57.692;11.958;2023-01-15T03:38:11;17.07;;;2.67;;
12990;SDS011;6560;57.692;11.958;2023-01-15T03:40:52;14.20;;;2.40;;
12990;SDS011;6560;57.692;11.958;2023-01-15T03:43:23;16.80;;;3.53;;
12990;SDS011;6560;57.692;11.958;2023-01-15T03:46:05;17.50;;;3.37;;
12990;SDS011;6560;57.692;11.958;2023-01-15T03:48:53;19.77;;;4.50;;
12990;SDS011;6560;57.692;11.958;2023-01-15T03:51:41;19.40;;;3.70;;
12990;SDS011;6560;57.692;11.958;2023-01-15T03:54:16;16.30;;;3.83;;
12990;SDS011;6560;57.692;11.958;2023-01-15T03:56:53;15.03;;;3.23;;
12990;SDS011;6560;57.692;11.958;2023-01-15T03:59:33;16.13;;;3.27;;
12990;SDS011;6560;57.692;11.958;2023-01-15T04:02:04;15.70;;;3.23;;
12990;SDS011;6560;57.692;11.958;2023-01-15T04:04:35;20.90;;;5.07;;
12990;SDS011;6560;57.692;11.958;2023-01-15T04:07:02;19.23;;;2.93;;
12990;SDS011;6560;57.692;11.958;2023-01-15T04:09:28;19.43;;;3.53;;
12990;SDS011;6560;57.692;11.958;2023-01-15T04:11:57;20.70;;;4.70;;
12990;SDS011;6560;57.692;11.958;2023-01-15T04:14:24;20.77;;;4.93;;
12990;SDS011;6560;57.692;11.958;2023-01-15T04:16:51;19.80;;;4.07;;
12990;SDS011;6560;57.692;11.958;2023-01-15T04:19:17;22.70;;;4.37;;
12990;SDS011;6560;57.692;11.958;2023-01-15T04:21:43;23.80;;;4.50;;
12990;SDS011;6560;57.692;11.958;2023-01-15T04:24:08;22.73;;;4.03;;
12990;SDS011;6560;57.692;11.958;2023-01-15T04:26:34;21.17;;;3.73;;
12990;SDS011;6560;57.692;11.958;2023-01-15T04:28:59;17.70;;;4.13;;
12990;SDS011;6560;57.692;11.958;2023-01-15T04:31:25;26.37;;;4.70;;
12990;SDS011;6560;57.692;11.958;2023-01-15T04:33:51;19.43;;;3.33;;
12990;SDS011;6560;57.692;11.958;2023-01-15T04:36:17;13.43;;;3.60;;
12990;SDS011;6560;57.692;11.958;2023-01-15T04:38:49;19.43;;;4.97;;
12990;SDS011;6560;57.692;11.958;2023-01-15T04:41:14;20.33;;;3.73;;
12990;SDS011;6560;57.692;11.958;2023-01-15T04:43:58;22.23;;;4.83;;
12990;SDS011;6560;57.692;11.958;2023-01-15T04:46:36;19.57;;;4.53;;
12990;SDS011;6560;57.692;11.958;2023-01-15T04:49:08;20.30;;;4.10;;
12990;SDS011;6560;57.692;11.958;2023-01-15T04:51:37;23.50;;;5.50;;
12990;SDS011;6560;57.692;11.958;2023-01-15T04:54:04;23.30;;;4.60;;
12990;SDS011;6560;57.692;11.958;2023-01-15T04:56:31;25.10;;;5.03;;
12990;SDS011;6560;57.692;11.958;2023-01-15T04:59:01;16.53;;;4.37;;
12990;SDS011;6560;57.692;11.958;2023-01-15T05:01:26;24.37;;;4.00;;
12990;SDS011;6560;57.692;11.958;2023-01-15T05:03:52;26.20;;;4.27;;
12990;SDS011;6560;57.692;11.958;2023-01-15T05:06:18;29.53;;;5.43;;
12990;SDS011;6560;57.692;11.958;2023-01-15T05:08:44;18.90;;;4.13;;
12990;SDS011;6560;57.692;11.958;2023-01-15T05:11:09;27.27;;;5.23;;
12990;SDS011;6560;57.692;11.958;2023-01-15T05:13:35;28.53;;;4.77;;
12990;SDS011;6560;57.692;11.958;2023-01-15T05:16:14;24.30;;;6.97;;
12990;SDS011;6560;57.692;11.958;2023-01-15T05:18:41;23.53;;;3.87;;
12990;SDS011;6560;57.692;11.958;2023-01-15T05:21:21;18.87;;;4.70;;
12990;SDS011;6560;57.692;11.958;2023-01-15T05:23:51;18.77;;;4.00;;
12990;SDS011;6560;57.692;11.958;2023-01-15T05:26:18;18.37;;;4.37;;
12990;SDS011;6560;57.692;11.958;2023-01-15T05:28:45;20.70;;;4.67;;
12990;SDS011;6560;57.692;11.958;2023-01-15T05:31:12;19.47;;;4.20;;
12990;SDS011;6560;57.692;11.958;2023-01-15T05:33:42;17.27;;;4.53;;
12990;SDS011;6560;57.692;11.958;2023-01-15T05:36:09;25.33;;;5.80;;
12990;SDS011;6560;57.692;11.958;2023-01-15T05:38:36;26.60;;;4.27;;
12990;SDS011;6560;57.692;11.958;2023-01-15T05:41:03;25.30;;;5.27;;
12990;SDS011;6560;57.692;11.958;2023-01-15T05:43:53;23.97;;;4.97;;
12990;SDS011;6560;57.692;11.958;2023-01-15T05:46:19;21.63;;;4.03;;
12990;SDS011;6560;57.692;11.958;2023-01-15T05:48:45;19.50;;;4.87;;
12990;SDS011;6560;57.692;11.958;2023-01-15T05:51:10;17.77;;;4.17;;
12990;SDS011;6560;57.692;11.958;2023-01-15T05:53:36;15.67;;;4.37;;
12990;SDS011;6560;57.692;11.958;2023-01-15T05:56:02;22.53;;;5.07;;
12990;SDS011;6560;57.692;11.958;2023-01-15T05:58:28;20.93;;;4.60;;
12990;SDS011;6560;57.692;11.958;2023-01-15T06:00:53;33.40;;;6.10;;
12990;SDS011;6560;57.692;11.958;2023-01-15T06:03:23;30.10;;;5.30;;
12990;SDS011;6560;57.692;11.958;2023-01-15T06:05:52;18.23;;;4.83;;
12990;SDS011;6560;57.692;11.958;2023-01-15T06:08:19;20.20;;;4.37;;
12990;SDS011;6560;57.692;11.958;2023-01-15T06:10:46;22.23;;;5.10;;
12990;SDS011;6560;57.692;11.958;2023-01-15T06:13:12;16.43;;;3.90;;
12990;SDS011;6560;57.692;11.958;2023-01-15T06:15:38;24.67;;;5.07;;
12990;SDS011;6560;57.692;11.958;2023-01-15T06:18:04;25.77;;;5.67;;
12990;SDS011;6560;57.692;11.958;2023-01-15T06:20:29;17.77;;;3.87;;
12990;SDS011;6560;57.692;11.958;2023-01-15T06:22:55;20.20;;;4.53;;
12990;SDS011;6560;57.692;11.958;2023-01-15T06:25:20;18.07;;;4.60;;
12990;SDS011;6560;57.692;11.958;2023-01-15T06:27:46;23.00;;;4.50;;
12990;SDS011;6560;57.692;11.958;2023-01-15T06:30:13;15.23;;;3.53;;
12990;SDS011;6560;57.692;11.958;2023-01-15T06:32:39;18.90;;;3.93;;
12990;SDS011;6560;57.692;11.958;2023-01-15T06:35:04;22.83;;;4.07;;
12990;SDS011;6560;57.692;11.958;2023-01-15T06:37:30;25.47;;;5.43;;
12990;SDS011;6560;57.692;11.958;2023-01-15T06:39:55;34.93;;;4.47;;
12990;SDS011;6560;57.692;11.958;2023-01-15T06:42:21;18.03;;;5.63;;
12990;SDS011;6560;57.692;11.958;2023-01-15T06:45:05;18.37;;;4.17;;
12990;SDS011;6560;57.692;11.958;2023-01-15T06:47:49;21.53;;;4.47;;
12990;SDS011;6560;57.692;11.958;2023-01-15T06:50:15;16.70;;;4.07;;
12990;SDS011;6560;57.692;11.958;2023-01-15T06:52:40;17.30;;;4.53;;
12990;SDS011;6560;57.692;11.958;2023-01-15T06:55:06;30.15;;;6.45;;
12990;SDS011;6560;57.692;11.958;2023-01-15T06:57:32;20.87;;;4.27;;
12990;SDS011;6560;57.692;11.958;2023-01-15T06:59:57;24.47;;;4.73;;
12990;SDS011;6560;57.692;11.958;2023-01-15T07:02:23;23.97;;;4.80;;
12990;SDS011;6560;57.692;11.958;2023-01-15T07:04:48;21.30;;;5.53;;
12990;SDS011;6560;57.692;11.958;2023-01-15T07:07:15;20.40;;;5.40;;
12990;SDS011;6560;57.692;11.958;2023-01-15T07:09:42;26.00;;;5.47;;
12990;SDS011;6560;57.692;11.958;2023-01-15T07:12:08;19.27;;;3.80;;
12990;SDS011;6560;57.692;11.958;2023-01-15T07:14:34;19.90;;;4.73;;
12990;SDS011;6560;57.692;11.958;2023-01-15T07:17:00;21.97;;;4.17;;
12990;SDS011;6560;57.692;11.958;2023-01-15T07:19:26;27.60;;;4.93;;
12990;SDS011;6560;57.692;11.958;2023-01-15T07:21:52;19.43;;;4.70;;
12990;SDS011;6560;57.692;11.958;2023-01-15T07:24:18;20.97;;;4.67;;
12990;SDS011;6560;57.692;11.958;2023-01-15T07:26:43;17.30;;;3.93;;
12990;SDS011;6560;57.692;11.958;2023-01-15T07:29:10;19.23;;;4.73;;
12990;SDS011;6560;57.692;11.958;2023-01-15T07:31:35;18.70;;;5.07;;
12990;SDS011;6560;57.692;11.958;2023-01-15T07:34:02;17.90;;;4.07;;
12990;SDS011;6560;57.692;11.958;2023-01-15T07:36:28;17.30;;;4.87;;
12990;SDS011;6560;57.692;11.958;2023-01-15T07:38:53;21.87;;;6.37;;
12990;SDS011;6560;57.692;11.958;2023-01-15T07:41:19;24.43;;;5.20;;
12990;SDS011;6560;57.692;11.958;2023-01-15T07:44:12;25.27;;;5.07;;
12990;SDS011;6560;57.692;11.958;2023-01-15T07:46:59;21.13;;;4.83;;
12990;SDS011;6560;57.692;11.958;2023-01-15T08:00:20;24.27;;;4.33;;
12990;SDS011;6560;57.692;11.958;2023-01-15T08:31:46;14.57;;;3.77;;
12990;SDS011;6560;57.692;11.958;2023-01-15T08:34:26;14.87;;;4.67;;
12990;SDS011;6560;57.692;11.958;2023-01-15T08:36:55;21.67;;;4.60;;
12990;SDS011;6560;57.692;11.958;2023-01-15T08:39:24;25.97;;;5.57;;
12990;SDS011;6560;57.692;11.958;2023-01-15T08:42:05;19.33;;;5.90;;
12990;SDS011;6560;57.692;11.958;2023-01-15T09:01:46;21.33;;;4.73;;
12990;SDS011;6560;57.692;11.958;2023-01-15T09:07:54;22.27;;;5.60;;
12990;SDS011;6560;57.692;11.958;2023-01-15T09:11:14;26.37;;;5.80;;
12990;SDS011;6560;57.692;11.958;2023-01-15T09:17:08;19.10;;;5.13;;
12990;SDS011;6560;57.692;11.958;2023-01-15T09:20:08;22.07;;;5.00;;
12990;SDS011;6560;57.692;11.958;2023-01-15T09:23:17;12.17;;;3.60;;
12990;SDS011;6560;57.692;11.958;2023-01-15T09:29:20;19.13;;;3.90;;
12990;SDS011;6560;57.692;11.958;2023-01-15T09:32:28;14.50;;;3.83;;
12990;SDS011;6560;57.692;11.958;2023-01-15T09:35:34;19.70;;;4.83;;
12990;SDS011;6560;57.692;11.958;2023-01-15T09:38:00;17.13;;;4.03;;
12990;SDS011;6560;57.692;11.958;2023-01-15T09:47:33;20.83;;;4.67;;
12990;SDS011;6560;57.692;11.958;2023-01-15T09:50:20;20.67;;;4.60;;
12990;SDS011;6560;57.692;11.958;2023-01-15T10:00:32;32.73;;;5.87;;
12990;SDS011;6560;57.692;11.958;2023-01-15T10:06:42;22.70;;;6.10;;
12990;SDS011;6560;57.692;11.958;2023-01-15T10:19:38;29.93;;;5.70;;
12990;SDS011;6560;57.692;11.958;2023-01-15T10:25:26;18.90;;;5.90;;
12990;SDS011;6560;57.692;11.958;2023-01-15T10:28:44;22.03;;;4.73;;
12990;SDS011;6560;57.692;11.958;2023-01-15T10:31:20;20.73;;;4.53;;
12990;SDS011;6560;57.692;11.958;2023-01-15T10:36:45;20.57;;;4.50;;
12990;SDS011;6560;57.692;11.958;2023-01-15T10:47:18;23.40;;;5.37;;
12990;SDS011;6560;57.692;11.958;2023-01-15T10:49:50;21.30;;;5.67;;
12990;SDS011;6560;57.692;11.958;2023-01-15T10:52:24;17.03;;;4.67;;
12990;SDS011;6560;57.692;11.958;2023-01-15T10:54:57;17.90;;;4.47;;
12990;SDS011;6560;57.692;11.958;2023-01-15T10:57:51;21.40;;;5.83;;
12990;SDS011;6560;57.692;11.958;2023-01-15T11:00:31;16.93;;;4.93;;
12990;SDS011;6560;57.692;11.958;2023-01-15T11:03:00;21.87;;;4.73;;
12990;SDS011;6560;57.692;11.958;2023-01-15T11:05:35;16.03;;;5.10;;
12990;SDS011;6560;57.692;11.958;2023-01-15T11:08:04;29.90;;;6.20;;
12990;SDS011;6560;57.692;11.958;2023-01-15T11:10:32;25.90;;;5.37;;
12990;SDS011;6560;57.692;11.958;2023-01-15T11:13:01;28.90;;;5.70;;
12990;SDS011;6560;57.692;11.958;2023-01-15T11:15:53;18.57;;;5.10;;
12990;SDS011;6560;57.692;11.958;2023-01-15T11:18:41;29.53;;;6.20;;
12990;SDS011;6560;57.692;11.958;2023-01-15T11:21:27;21.70;;;5.37;;
12990;SDS011;6560;57.692;11.958;2023-01-15T11:23:55;19.30;;;4.10;;
12990;SDS011;6560;57.692;11.958;2023-01-15T11:26:27;21.37;;;5.47;;
12990;SDS011;6560;57.692;11.958;2023-01-15T11:28:54;20.37;;;4.30;;
12990;SDS011;6560;57.692;11.958;2023-01-15T11:31:22;17.07;;;4.37;;
12990;SDS011;6560;57.692;11.958;2023-01-15T11:34:15;23.70;;;4.67;;
12990;SDS011;6560;57.692;11.958;2023-01-15T11:36:45;23.33;;;4.50;;
12990;SDS011;6560;57.692;11.958;2023-01-15T11:39:23;21.60;;;4.40;;
12990;SDS011;6560;57.692;11.958;2023-01-15T11:42:03;27.00;;;6.03;;
12990;SDS011;6560;57.692;11.958;2023-01-15T11:45:10;24.40;;;4.40;;
12990;SDS011;6560;57.692;11.958;2023-01-15T11:48:18;23.93;;;6.43;;
12990;SDS011;6560;57.692;11.958;2023-01-15T11:51:11;21.03;;;4.90;;
12990;SDS011;6560;57.692;11.958;2023-01-15T11:56:12;18.07;;;5.93;;
12990;SDS011;6560;57.692;11.958;2023-01-15T11:58:44;26.70;;;5.73;;
12990;SDS011;6560;57.692;11.958;2023-01-15T12:04:23;26.30;;;4.87;;
12990;SDS011;6560;57.692;11.958;2023-01-15T12:07:13;25.77;;;4.27;;
12990;SDS011;6560;57.692;11.958;2023-01-15T12:15:41;18.20;;;4.80;;
12990;SDS011;6560;57.692;11.958;2023-01-15T12:18:45;19.83;;;4.40;;
12990;SDS011;6560;57.692;11.958;2023-01-15T12:27:23;13.37;;;3.50;;
12990;SDS011;6560;57.692;11.958;2023-01-15T12:30:02;18.40;;;4.43;;
12990;SDS011;6560;57.692;11.958;2023-01-15T12:32:50;21.17;;;3.67;;
12990;SDS011;6560;57.692;11.958;2023-01-15T12:35:40;18.20;;;4.83;;
12990;SDS011;6560;57.692;11.958;2023-01-15T12:38:12;15.17;;;4.50;;
12990;SDS011;6560;57.692;11.958;2023-01-15T12:40:48;17.23;;;4.47;;
12990;SDS011;6560;57.692;11.958;2023-01-15T12:43:24;17.83;;;3.77;;
12990;SDS011;6560;57.692;11.958;2023-01-15T12:46:17;14.07;;;4.30;;
12990;SDS011;6560;57.692;11.958;2023-01-15T12:51:49;17.00;;;4.57;;
12990;SDS011;6560;57.692;11.958;2023-01-15T12:54:21;13.93;;;3.17;;
12990;SDS011;6560;57.692;11.958;2023-01-15T12:56:59;15.27;;;4.20;;
12990;SDS011;6560;57.692;11.958;2023-01-15T13:02:53;18.03;;;3.73;;
12990;SDS011;6560;57.692;11.958;2023-01-15T13:08:05;23.50;;;4.10;;
12990;SDS011;6560;57.692;11.958;2023-01-15T13:10:40;22.97;;;4.17;;
12990;SDS011;6560;57.692;11.958;2023-01-15T13:15:46;24.10;;;6.17;;
12990;SDS011;6560;57.692;11.958;2023-01-15T13:18:56;16.37;;;4.53;;
12990;SDS011;6560;57.692;11.958;2023-01-15T13:21:34;15.13;;;4.33;;
12990;SDS011;6560;57.692;11.958;2023-01-15T13:37:51;15.47;;;3.63;;
12990;SDS011;6560;57.692;11.958;2023-01-15T13:40:22;23.43;;;4.20;;
12990;SDS011;6560;57.692;11.958;2023-01-15T13:42:49;22.93;;;6.07;;
12990;SDS011;6560;57.692;11.958;2023-01-15T13:45:20;19.80;;;4.57;;
12990;SDS011;6560;57.692;11.958;2023-01-15T13:47:52;17.90;;;4.83;;
12990;SDS011;6560;57.692;11.958;2023-01-15T13:50:31;22.93;;;5.30;;
12990;SDS011;6560;57.692;11.958;2023-01-15T13:53:44;17.70;;;4.57;;
12990;SDS011;6560;57.692;11.958;2023-01-15T13:55:57;16.87;;;4.53;;
12990;SDS011;6560;57.692;11.958;2023-01-15T13:58:56;13.07;;;4.67;;
12990;SDS011;6560;57.692;11.958;2023-01-15T14:14:33;19.13;;;4.10;;
12990;SDS011;6560;57.692;11.958;2023-01-15T14:17:07;12.70;;;3.77;;
12990;SDS011;6560;57.692;11.958;2023-01-15T14:25:22;20.70;;;3.13;;
12990;SDS011;6560;57.692;11.958;2023-01-15T14:35:45;15.80;;;3.63;;
12990;SDS011;6560;57.692;11.958;2023-01-15T14:38:14;19.47;;;4.77;;
12990;SDS011;6560;57.692;11.958;2023-01-15T14:43:25;14.73;;;3.90;;
12990;SDS011;6560;57.692;11.958;2023-01-15T14:45:53;27.40;;;5.60;;
12990;SDS011;6560;57.692;11.958;2023-01-15T14:48:32;18.73;;;4.20;;
12990;SDS011;6560;57.692;11.958;2023-01-15T14:51:12;18.50;;;4.00;;
12990;SDS011;6560;57.692;11.958;2023-01-15T14:53:41;15.50;;;3.93;;
12990;SDS011;6560;57.692;11.958;2023-01-15T14:56:12;19.50;;;3.67;;
12990;SDS011;6560;57.692;11.958;2023-01-15T14:58:58;25.30;;;4.87;;
12990;SDS011;6560;57.692;11.958;2023-01-15T15:01:40;16.33;;;4.77;;
12990;SDS011;6560;57.692;11.958;2023-01-15T15:06:59;17.83;;;4.13;;
12990;SDS011;6560;57.692;11.958;2023-01-15T15:16:09;13.13;;;2.83;;
12990;SDS011;6560;57.692;11.958;2023-01-15T15:18:46;8.17;;;2.13;;
12990;SDS011;6560;57.692;11.958;2023-01-15T15:21:44;8.60;;;2.10;;
12990;SDS011;6560;57.692;11.958;2023-01-15T15:24:15;10.23;;;3.13;;
12990;SDS011;6560;57.692;11.958;2023-01-15T15:26:50;10.83;;;2.20;;
12990;SDS011;6560;57.692;11.958;2023-01-15T15:29:17;10.47;;;2.37;;
12990;SDS011;6560;57.692;11.958;2023-01-15T15:31:53;17.83;;;3.57;;
12990;SDS011;6560;57.692;11.958;2023-01-15T15:36:59;12.50;;;2.70;;
12990;SDS011;6560;57.692;11.958;2023-01-15T15:39:50;13.37;;;2.73;;
12990;SDS011;6560;57.692;11.958;2023-01-15T15:42:34;10.70;;;2.00;;
12990;SDS011;6560;57.692;11.958;2023-01-15T15:45:32;7.63;;;2.37;;
12990;SDS011;6560;57.692;11.958;2023-01-15T15:48:16;14.57;;;2.00;;
12990;SDS011;6560;57.692;11.958;2023-01-15T15:56:40;14.93;;;2.77;;
12990;SDS011;6560;57.692;11.958;2023-01-15T15:59:31;12.83;;;3.30;;
12990;SDS011;6560;57.692;11.958;2023-01-15T16:05:00;18.80;;;5.57;;
12990;SDS011;6560;57.692;11.958;2023-01-15T16:07:29;21.40;;;3.63;;
12990;SDS011;6560;57.692;11.958;2023-01-15T16:12:47;23.20;;;4.53;;
12990;SDS011;6560;57.692;11.958;2023-01-15T16:15:17;19.70;;;3.83;;
12990;SDS011;6560;57.692;11.958;2023-01-15T16:17:46;26.73;;;4.60;;
12990;SDS011;6560;57.692;11.958;2023-01-15T16:20:17;27.03;;;6.40;;
12990;SDS011;6560;57.692;11.958;2023-01-15T16:22:44;24.53;;;4.03;;
12990;SDS011;6560;57.692;11.958;2023-01-15T16:25:22;23.20;;;4.00;;
12990;SDS011;6560;57.692;11.958;2023-01-15T16:27:51;24.37;;;4.20;;
12990;SDS011;6560;57.692;11.958;2023-01-15T16:30:17;19.83;;;3.77;;
12990;SDS011;6560;57.692;11.958;2023-01-15T16:32:43;24.37;;;4.17;;
12990;SDS011;6560;57.692;11.958;2023-01-15T16:35:14;28.50;;;5.40;;
12990;SDS011;6560;57.692;11.958;2023-01-15T16:37:46;19.93;;;4.33;;
12990;SDS011;6560;57.692;11.958;2023-01-15T16:41:03;19.97;;;4.43;;
12990;SDS011;6560;57.692;11.958;2023-01-15T16:54:47;14.93;;;4.23;;
12990;SDS011;6560;57.692;11.958;2023-01-15T16:57:30;25.27;;;4.50;;
12990;SDS011;6560;57.692;11.958;2023-01-15T16:59:59;14.87;;;3.10;;
12990;SDS011;6560;57.692;11.958;2023-01-15T17:02:28;21.27;;;4.20;;
12990;SDS011;6560;57.692;11.958;2023-01-15T17:04:59;24.20;;;4.30;;
12990;SDS011;6560;57.692;11.958;2023-01-15T17:09:54;16.50;;;4.17;;
12990;SDS011;6560;57.692;11.958;2023-01-15T17:12:29;19.97;;;4.50;;
12990;SDS011;6560;57.692;11.958;2023-01-15T17:15:14;18.63;;;4.73;;
12990;SDS011;6560;57.692;11.958;2023-01-15T17:17:44;18.60;;;3.50;;
12990;SDS011;6560;57.692;11.958;2023-01-15T17:25:57;11.30;;;2.90;;
12990;SDS011;6560;57.692;11.958;2023-01-15T17:28:23;20.47;;;4.33;;
12990;SDS011;6560;57.692;11.958;2023-01-15T17:30:50;13.67;;;3.97;;
12990;SDS011;6560;57.692;11.958;2023-01-15T17:33:17;15.33;;;4.20;;
12990;SDS011;6560;57.692;11.958;2023-01-15T17:35:44;15.00;;;3.47;;
12990;SDS011;6560;57.692;11.958;2023-01-15T17:38:12;24.30;;;4.50;;
12990;SDS011;6560;57.692;11.958;2023-01-15T17:40:39;17.37;;;3.43;;
12990;SDS011;6560;57.692;11.958;2023-01-15T17:43:09;15.37;;;3.47;;
12990;SDS011;6560;57.692;11.958;2023-01-15T17:45:38;15.10;;;3.50;;
12990;SDS011;6560;57.692;11.958;2023-01-15T17:48:13;24.97;;;5.17;;
12990;SDS011;6560;57.692;11.958;2023-01-15T17:50:42;25.53;;;3.83;;
12990;SDS011;6560;57.692;11.958;2023-01-15T17:53:10;15.13;;;3.43;;
12990;SDS011;6560;57.692;11.958;2023-01-15T17:55:46;19.07;;;3.20;;
12990;SDS011;6560;57.692;11.958;2023-01-15T17:58:39;23.40;;;3.90;;
12990;SDS011;6560;57.692;11.958;2023-01-15T18:01:23;13.30;;;2.60;;
12990;SDS011;6560;57.692;11.958;2023-01-15T18:04:20;7.13;;;1.90;;
12990;SDS011;6560;57.692;11.958;2023-01-15T18:07:23;8.27;;;1.60;;
12990;SDS011;6560;57.692;11.958;2023-01-15T18:09:54;7.33;;;2.13;;
12990;SDS011;6560;57.692;11.958;2023-01-15T18:12:23;6.47;;;1.73;;
12990;SDS011;6560;57.692;11.958;2023-01-15T18:14:49;11.57;;;2.57;;
12990;SDS011;6560;57.692;11.958;2023-01-15T18:17:14;11.53;;;2.43;;
12990;SDS011;6560;57.692;11.958;2023-01-15T18:19:40;7.53;;;1.90;;
12990;SDS011;6560;57.692;11.958;2023-01-15T18:22:06;9.47;;;1.60;;
12990;SDS011;6560;57.692;11.958;2023-01-15T18:24:31;9.67;;;2.27;;
12990;SDS011;6560;57.692;11.958;2023-01-15T18:26:59;8.03;;;2.77;;
12990;SDS011;6560;57.692;11.958;2023-01-15T18:29:50;8.90;;;1.87;;
12990;SDS011;6560;57.692;11.958;2023-01-15T18:32:39;9.47;;;2.20;;
12990;SDS011;6560;57.692;11.958;2023-01-15T18:42:07;10.57;;;1.83;;
12990;SDS011;6560;57.692;11.958;2023-01-15T18:44:34;10.73;;;2.23;;
12990;SDS011;6560;57.692;11.958;2023-01-15T18:47:18;7.60;;;1.67;;
12990;SDS011;6560;57.692;11.958;2023-01-15T18:49:45;7.80;;;1.93;;
12990;SDS011;6560;57.692;11.958;2023-01-15T18:52:12;6.33;;;2.00;;
12990;SDS011;6560;57.692;11.958;2023-01-15T18:54:57;11.63;;;1.73;;
12990;SDS011;6560;57.692;11.958;2023-01-15T18:57:23;7.13;;;1.77;;
12990;SDS011;6560;57.692;11.958;2023-01-15T18:59:49;11.47;;;1.53;;
12990;SDS011;6560;57.692;11.958;2023-01-15T19:02:16;7.13;;;2.50;;
12990;SDS011;6560;57.692;11.958;2023-01-15T19:04:43;3.87;;;1.13;;
12990;SDS011;6560;57.692;11.958;2023-01-15T19:07:09;9.60;;;1.83;;
12990;SDS011;6560;57.692;11.958;2023-01-15T19:09:35;4.93;;;1.27;;
12990;SDS011;6560;57.692;11.958;2023-01-15T19:12:01;9.63;;;2.60;;
12990;SDS011;6560;57.692;11.958;2023-01-15T19:14:27;6.70;;;2.17;;
12990;SDS011;6560;57.692;11.958;2023-01-15T19:17:19;11.07;;;2.40;;
12990;SDS011;6560;57.692;11.958;2023-01-15T19:20:10;10.63;;;2.13;;
12990;SDS011;6560;57.692;11.958;2023-01-15T19:22:36;8.17;;;2.13;;
12990;SDS011;6560;57.692;11.958;2023-01-15T19:25:20;13.73;;;1.93;;
12990;SDS011;6560;57.692;11.958;2023-01-15T19:27:47;11.53;;;2.40;;
12990;SDS011;6560;57.692;11.958;2023-01-15T19:30:16;11.97;;;2.57;;